Morehouse, MO (63868)

2:46 PM CDT on May 26, 2017 (GMT -0500)
Sikeston Ridge | | Change Station
Active Advisory: Lake Wind Advisory

Elev 326 ft 36.89 °N, 89.60 °W | Updated 12 minutes ago

Mostly Cloudy
Mostly Cloudy
82.9 °F
Feels Like 86 °F
N
0.0
Wind Variable Wind from North
Gusts 0.0 mph

Today
High -- | Low -- °F
--% Chance of Precip.
Yesterday
High -- | Low -- °F
Precip. -- in
Pressure 29.76 in
Visibility 10.0 miles
Clouds Mostly Cloudy 4800 ft
Heat Index 86 °F
Dew Point 68 °F
Humidity 61%
Rainfall 0.00 in
Snow Depth Not available.
5:43 AM 8:08 PM
New Moon, 2% visible
METAR KCGI 261853Z 22021G27KT 10SM BKN048 29/17 A2977 RMK AO2 PK WND 21032/1826 SLP076 T02940167
Pressure 29.76 in
Visibility 10.0 miles
Clouds Mostly Cloudy 4800 ft
Heat Index 86 °F
Dew Point 68 °F
Humidity 61%
Rainfall 0.00 in
Snow Depth Not available.
5:43 AM 8:08 PM
New Moon, 2% visible
METAR KCGI 261853Z 22021G27KT 10SM BKN048 29/17 A2977 RMK AO2 PK WND 21032/1826 SLP076 T02940167

Get Your Daily Forecast Email!

Thanks for signing up!

Be on the lookout for a verification email in your inbox.

You'll start receiving severe weather alerts in your inbox..

×

10-Day Weather Forecast

Almanac

Astronomy

May. 26, 2017 Rise Set
Actual Time
Civil Twilight
Nautical Twilight
Astronomical Twilight
Moon
Length of Visible Light
Length of Day
Tomorrow will be .
, % of the Moon is Illuminated

Today's Extremes

State Highs State Lows

Community

WunderPhotos

Category 6

Welcome to Category 6. This is the collective home for Weather Underground's featured writeups by Dr. Jeff Masters (right), Bob Henson (left), Chris Burt, and other regular contributors.

Nearby

Air Quality

  Air Quality AQ Index Pollutant
Not available.

Snow Depth

Station Depth Elevation

Earthquake Activity

City Distance Mag. Time & Date
Minimum magnitude displayed is 2.5.

Coastal Water Temperatures

Place Temperature

Stations

Nearby Weather Stations

Station Location Temp. Windchill Dew Point Humidity Wind Precip. Elev Updated Type
                   

Watches & Warnings

Lake Wind Advisory
Issued: 3:43 AM CDT May. 26, 2017 – National Weather Service

... Lake Wind Advisory in effect from 10 am this morning to 6 PM
CDT this evening...

The National Weather Service in Paducah has issued a lake Wind
Advisory, which is in effect from 10 am this morning to 6 PM CDT
this evening.

* Timing... from late morning through the afternoon.

* Winds... south winds will be sustained from 15 to 20 mph with
gusts 20 to 30 mph.

* Impacts... winds are expected to be strong enough to cause
problems for boaters on area lakes. Small boats will be the most
significantly impacted. Boaters on Kentucky Lake, Lake Barkley,
and Rend Lake will be significantly impacted due to their
extensive south fetches.

Precautionary/preparedness actions...

A lake Wind Advisory indicates that winds will cause rough chop
on area lakes. Small boats will be especially prone to capsizing.



Drs